Lander, WY

9:37 AM MST on December 27, 2014 (GMT -0700)
Riverton Regional | Change Station
CLOSE
Current Station
Airport
Location: Riverton,
Elevation: 5525 ft
Nearby Weather Stations

Elev 5525 ft 43.06 °N, 108.46 °W | Updated 44 minutes ago

Clear
Clear
5 °F
Feels Like -9 °F
N
9
Wind Variable Wind from SW

Today
High -- | Low -- °F
--% Chance of Precip.
Yesterday
High -- | Low -- °F
Precip. -- in
7:44 AM 4:47 PM
Waxing Crescent, 38% visible
Pressure 30.31 in
Visibility 10.0 miles
Clouds Clear
Windchill -9 °F
Dew Point 1 °F
Humidity 84%
Rainfall 0.00 in
Snow Depth Not available.
UV 1 out of 12
Pollen .10 out of 12
Air Quality Not available.
Flu Activity Not available.
METAR KRIW 271553Z AUTO 23008KT 10SM CLR M15/M17 A3006 RMK AO2 SLP264 T11501172

More Conditions Fewer Conditions

Pressure 30.31 in
Visibility 10.0 miles
Clouds Clear
Windchill -9 °F
Dew Point 1 °F
Humidity 84%
Rainfall 0.00 in
Snow Depth Not available.
UV 1 out of 12
Pollen .10 out of 12
Air Quality Not available.
Flu Activity Not available.
METAR KRIW 271553Z AUTO 23008KT 10SM CLR M15/M17 A3006 RMK AO2 SLP264 T11501172

More Conditions Fewer Conditions

10-Day Weather Forecast

Almanac

Astronomy

Dec. 27, 2014 Rise Set
Actual Time
Civil Twilight
Nautical Twilight
Astronomical Twilight
Moon
Length of Visible Light
Length of Day
Tomorrow will be .
, % of the Moon is Illuminated

Today's Extremes

State Highs State Lows

Community

WunderPhotos

Upload Photos

1,780,954 photos uploaded!

WunderBlogs® & News

Nearby

Air Quality

  Air Quality AQ Index Pollutant
Not available.

Snow Depth

Station Depth Elevation

Earthquake Activity

City Distance Mag. Time & Date
Minimum magnitude displayed is 2.5.

Coastal Water Temperatures

Place Temperature

Nearby Weather Stations